sensor_id;sensor_type;location;lat;lon;timestamp;pressure;altitude;pressure_sealevel;temperature;humidity
63281;BME280;49406;51.044;3.766;2023-05-02T00:01:40;102185.19;;;11.57;100.00
63281;BME280;49406;51.044;3.766;2023-05-02T00:04:15;102186.89;;;11.55;100.00
63281;BME280;49406;51.044;3.766;2023-05-02T00:06:49;102184.04;;;11.53;100.00
63281;BME280;49406;51.044;3.766;2023-05-02T00:09:24;102189.97;;;11.52;100.00
63281;BME280;49406;51.044;3.766;2023-05-02T00:11:58;102188.48;;;11.55;100.00
63281;BME280;49406;51.044;3.766;2023-05-02T00:14:34;102189.22;;;11.63;100.00
63281;BME280;49406;51.044;3.766;2023-05-02T00:17:08;102187.29;;;11.63;100.00
63281;BME280;49406;51.044;3.766;2023-05-02T00:19:49;102185.72;;;11.63;100.00
63281;BME280;49406;51.044;3.766;2023-05-02T00:22:23;102187.87;;;11.65;100.00
63281;BME280;49406;51.044;3.766;2023-05-02T00:24:58;102193.33;;;11.67;100.00
63281;BME280;49406;51.044;3.766;2023-05-02T00:27:32;102196.59;;;11.63;100.00
63281;BME280;49406;51.044;3.766;2023-05-02T00:30:09;102194.64;;;11.62;100.00
63281;BME280;49406;51.044;3.766;2023-05-02T00:32:43;102196.39;;;11.70;100.00
63281;BME280;49406;51.044;3.766;2023-05-02T00:35:18;102195.19;;;11.71;100.00
63281;BME280;49406;51.044;3.766;2023-05-02T00:37:52;102200.98;;;11.72;100.00
63281;BME280;49406;51.044;3.766;2023-05-02T00:40:27;102199.43;;;11.72;100.00
63281;BME280;49406;51.044;3.766;2023-05-02T00:43:01;102198.91;;;11.73;100.00
63281;BME280;49406;51.044;3.766;2023-05-02T00:45:35;102195.31;;;11.69;100.00
63281;BME280;49406;51.044;3.766;2023-05-02T00:48:13;102197.89;;;11.66;100.00
63281;BME280;49406;51.044;3.766;2023-05-02T00:50:49;102200.71;;;11.67;100.00
63281;BME280;49406;51.044;3.766;2023-05-02T00:53:24;102203.13;;;11.73;100.00
63281;BME280;49406;51.044;3.766;2023-05-02T00:55:59;102199.09;;;11.73;100.00
63281;BME280;49406;51.044;3.766;2023-05-02T00:58:35;102196.29;;;11.73;100.00
63281;BME280;49406;51.044;3.766;2023-05-02T01:01:31;102197.84;;;11.72;100.00
63281;BME280;49406;51.044;3.766;2023-05-02T01:04:14;102198.39;;;11.73;100.00
63281;BME280;49406;51.044;3.766;2023-05-02T01:07:04;102202.54;;;11.70;100.00
63281;BME280;49406;51.044;3.766;2023-05-02T01:09:59;102204.86;;;11.65;100.00
63281;BME280;49406;51.044;3.766;2023-05-02T01:12:40;102205.95;;;11.67;100.00
63281;BME280;49406;51.044;3.766;2023-05-02T01:15:18;102207.48;;;11.72;100.00
63281;BME280;49406;51.044;3.766;2023-05-02T01:17:55;102211.14;;;11.71;100.00
63281;BME280;49406;51.044;3.766;2023-05-02T01:20:31;102212.36;;;11.71;100.00
63281;BME280;49406;51.044;3.766;2023-05-02T01:23:15;102215.52;;;11.71;100.00
63281;BME280;49406;51.044;3.766;2023-05-02T01:25:59;102216.70;;;11.69;100.00
63281;BME280;49406;51.044;3.766;2023-05-02T01:28:47;102219.40;;;11.65;100.00
63281;BME280;49406;51.044;3.766;2023-05-02T01:31:26;102222.30;;;11.61;100.00
63281;BME280;49406;51.044;3.766;2023-05-02T01:34:03;102231.63;;;11.63;100.00
63281;BME280;49406;51.044;3.766;2023-05-02T01:36:42;102232.98;;;11.69;100.00
63281;BME280;49406;51.044;3.766;2023-05-02T01:39:20;102231.91;;;11.68;100.00
63281;BME280;49406;51.044;3.766;2023-05-02T01:41:57;102232.99;;;11.69;100.00
63281;BME280;49406;51.044;3.766;2023-05-02T01:44:32;102233.70;;;11.69;100.00
63281;BME280;49406;51.044;3.766;2023-05-02T01:47:09;102236.67;;;11.70;100.00
63281;BME280;49406;51.044;3.766;2023-05-02T01:49:45;102236.85;;;11.70;100.00
63281;BME280;49406;51.044;3.766;2023-05-02T01:52:22;102238.17;;;11.66;100.00
63281;BME280;49406;51.044;3.766;2023-05-02T01:54:58;102235.92;;;11.60;100.00
63281;BME280;49406;51.044;3.766;2023-05-02T01:57:33;102231.57;;;11.55;100.00
63281;BME280;49406;51.044;3.766;2023-05-02T02:00:10;102228.48;;;11.58;100.00
63281;BME280;49406;51.044;3.766;2023-05-02T02:02:46;102228.54;;;11.60;100.00
63281;BME280;49406;51.044;3.766;2023-05-02T02:05:22;102229.46;;;11.55;100.00
63281;BME280;49406;51.044;3.766;2023-05-02T02:07:57;102234.98;;;11.52;100.00
63281;BME280;49406;51.044;3.766;2023-05-02T02:10:34;102237.64;;;11.46;100.00
63281;BME280;49406;51.044;3.766;2023-05-02T02:13:15;102242.98;;;11.37;100.00
63281;BME280;49406;51.044;3.766;2023-05-02T02:15:51;102244.50;;;11.34;100.00
63281;BME280;49406;51.044;3.766;2023-05-02T02:18:31;102244.95;;;11.32;100.00
63281;BME280;49406;51.044;3.766;2023-05-02T02:21:10;102246.17;;;11.26;100.00
63281;BME280;49406;51.044;3.766;2023-05-02T02:23:48;102242.68;;;11.20;100.00
63281;BME280;49406;51.044;3.766;2023-05-02T02:26:24;102247.77;;;11.13;100.00
63281;BME280;49406;51.044;3.766;2023-05-02T02:29:00;102253.21;;;11.08;100.00
63281;BME280;49406;51.044;3.766;2023-05-02T02:31:35;102255.86;;;11.03;100.00
63281;BME280;49406;51.044;3.766;2023-05-02T02:34:11;102256.48;;;10.94;100.00
63281;BME280;49406;51.044;3.766;2023-05-02T02:36:52;102262.70;;;10.86;100.00
63281;BME280;49406;51.044;3.766;2023-05-02T02:39:32;102264.09;;;10.78;100.00
63281;BME280;49406;51.044;3.766;2023-05-02T02:42:13;102267.45;;;10.80;100.00
63281;BME280;49406;51.044;3.766;2023-05-02T02:44:55;102268.00;;;10.75;100.00
63281;BME280;49406;51.044;3.766;2023-05-02T02:47:39;102270.59;;;10.68;100.00
63281;BME280;49406;51.044;3.766;2023-05-02T02:50:19;102274.80;;;10.63;100.00
63281;BME280;49406;51.044;3.766;2023-05-02T02:52:59;102272.34;;;10.58;100.00
63281;BME280;49406;51.044;3.766;2023-05-02T02:55:42;102277.13;;;10.54;100.00
63281;BME280;49406;51.044;3.766;2023-05-02T02:58:29;102281.21;;;10.50;100.00
63281;BME280;49406;51.044;3.766;2023-05-02T03:01:06;102287.76;;;10.47;100.00
63281;BME280;49406;51.044;3.766;2023-05-02T03:03:45;102290.48;;;10.40;100.00
63281;BME280;49406;51.044;3.766;2023-05-02T03:06:21;102293.85;;;10.35;100.00
63281;BME280;49406;51.044;3.766;2023-05-02T03:08:57;102295.23;;;10.40;100.00
63281;BME280;49406;51.044;3.766;2023-05-02T03:11:31;102292.96;;;10.45;100.00
63281;BME280;49406;51.044;3.766;2023-05-02T03:14:05;102296.16;;;10.47;100.00
63281;BME280;49406;51.044;3.766;2023-05-02T03:16:40;102294.38;;;10.46;100.00
63281;BME280;49406;51.044;3.766;2023-05-02T03:19:15;102294.23;;;10.47;100.00
63281;BME280;49406;51.044;3.766;2023-05-02T03:21:49;102292.80;;;10.46;100.00
63281;BME280;49406;51.044;3.766;2023-05-02T03:24:23;102290.31;;;10.44;100.00
63281;BME280;49406;51.044;3.766;2023-05-02T03:26:59;102292.70;;;10.38;100.00
63281;BME280;49406;51.044;3.766;2023-05-02T03:29:34;102294.42;;;10.31;100.00
63281;BME280;49406;51.044;3.766;2023-05-02T03:32:08;102290.61;;;10.26;100.00
63281;BME280;49406;51.044;3.766;2023-05-02T03:34:43;102291.63;;;10.31;100.00
63281;BME280;49406;51.044;3.766;2023-05-02T03:37:17;102295.20;;;10.28;100.00
63281;BME280;49406;51.044;3.766;2023-05-02T03:39:52;102296.73;;;10.22;100.00
63281;BME280;49406;51.044;3.766;2023-05-02T03:42:26;102303.56;;;10.18;100.00
63281;BME280;49406;51.044;3.766;2023-05-02T03:45:01;102309.09;;;10.16;100.00
63281;BME280;49406;51.044;3.766;2023-05-02T03:47:35;102309.24;;;10.15;100.00
63281;BME280;49406;51.044;3.766;2023-05-02T03:50:10;102314.16;;;10.11;100.00
63281;BME280;49406;51.044;3.766;2023-05-02T03:52:45;102319.29;;;10.07;100.00
63281;BME280;49406;51.044;3.766;2023-05-02T03:55:19;102318.67;;;10.15;100.00
63281;BME280;49406;51.044;3.766;2023-05-02T03:57:54;102317.39;;;10.23;100.00
63281;BME280;49406;51.044;3.766;2023-05-02T04:00:28;102319.70;;;10.29;100.00
63281;BME280;49406;51.044;3.766;2023-05-02T04:03:04;102324.95;;;10.35;100.00
63281;BME280;49406;51.044;3.766;2023-05-02T04:05:39;102332.46;;;10.39;100.00
63281;BME280;49406;51.044;3.766;2023-05-02T04:08:13;102335.11;;;10.45;100.00
63281;BME280;49406;51.044;3.766;2023-05-02T04:10:49;102333.96;;;10.48;100.00
63281;BME280;49406;51.044;3.766;2023-05-02T04:13:23;102336.29;;;10.50;100.00
63281;BME280;49406;51.044;3.766;2023-05-02T04:15:57;102339.85;;;10.51;100.00
63281;BME280;49406;51.044;3.766;2023-05-02T04:18:32;102341.06;;;10.62;100.00
63281;BME280;49406;51.044;3.766;2023-05-02T04:21:07;102347.70;;;10.68;100.00
63281;BME280;49406;51.044;3.766;2023-05-02T04:23:42;102349.86;;;10.70;100.00
63281;BME280;49406;51.044;3.766;2023-05-02T04:26:17;102358.38;;;10.74;100.00
63281;BME280;49406;51.044;3.766;2023-05-02T04:28:51;102354.45;;;10.76;100.00
63281;BME280;49406;51.044;3.766;2023-05-02T04:31:25;102365.52;;;10.77;100.00
63281;BME280;49406;51.044;3.766;2023-05-02T04:34:00;102363.61;;;10.73;100.00
63281;BME280;49406;51.044;3.766;2023-05-02T04:36:36;102364.63;;;10.72;100.00
63281;BME280;49406;51.044;3.766;2023-05-02T04:39:10;102368.75;;;10.75;100.00
63281;BME280;49406;51.044;3.766;2023-05-02T04:41:45;102371.09;;;10.83;100.00
63281;BME280;49406;51.044;3.766;2023-05-02T04:44:19;102372.58;;;10.85;100.00
63281;BME280;49406;51.044;3.766;2023-05-02T04:46:54;102380.17;;;10.88;100.00
63281;BME280;49406;51.044;3.766;2023-05-02T04:49:28;102386.77;;;10.92;100.00
63281;BME280;49406;51.044;3.766;2023-05-02T04:52:02;102397.14;;;10.93;100.00
63281;BME280;49406;51.044;3.766;2023-05-02T04:54:37;102396.66;;;10.89;100.00
63281;BME280;49406;51.044;3.766;2023-05-02T04:57:12;102396.96;;;10.88;100.00
63281;BME280;49406;51.044;3.766;2023-05-02T04:59:46;102403.90;;;10.91;100.00
63281;BME280;49406;51.044;3.766;2023-05-02T05:02:20;102408.05;;;10.95;100.00
63281;BME280;49406;51.044;3.766;2023-05-02T05:04:55;102408.03;;;10.94;100.00
63281;BME280;49406;51.044;3.766;2023-05-02T05:07:29;102411.50;;;10.93;100.00
63281;BME280;49406;51.044;3.766;2023-05-02T05:10:04;102406.77;;;10.88;100.00
63281;BME280;49406;51.044;3.766;2023-05-02T05:12:40;102412.36;;;10.88;100.00
63281;BME280;49406;51.044;3.766;2023-05-02T05:15:14;102419.46;;;10.96;100.00
63281;BME280;49406;51.044;3.766;2023-05-02T05:17:49;102426.58;;;11.00;100.00
63281;BME280;49406;51.044;3.766;2023-05-02T05:20:22;102432.27;;;10.97;100.00
63281;BME280;49406;51.044;3.766;2023-05-02T05:22:56;102433.58;;;10.94;100.00
63281;BME280;49406;51.044;3.766;2023-05-02T05:25:30;102440.91;;;10.89;100.00
63281;BME280;49406;51.044;3.766;2023-05-02T05:28:06;102444.48;;;10.85;100.00
63281;BME280;49406;51.044;3.766;2023-05-02T05:30:40;102453.23;;;10.90;100.00
63281;BME280;49406;51.044;3.766;2023-05-02T05:33:14;102458.54;;;10.92;100.00
63281;BME280;49406;51.044;3.766;2023-05-02T05:35:49;102461.40;;;10.94;100.00
63281;BME280;49406;51.044;3.766;2023-05-02T05:38:24;102464.02;;;10.93;100.00
63281;BME280;49406;51.044;3.766;2023-05-02T05:40:56;102464.52;;;10.93;100.00
63281;BME280;49406;51.044;3.766;2023-05-02T05:43:31;102466.31;;;10.90;100.00
63281;BME280;49406;51.044;3.766;2023-05-02T05:46:04;102474.58;;;10.90;100.00
63281;BME280;49406;51.044;3.766;2023-05-02T05:48:38;102486.02;;;10.98;100.00
63281;BME280;49406;51.044;3.766;2023-05-02T05:51:13;102496.95;;;11.00;100.00
63281;BME280;49406;51.044;3.766;2023-05-02T05:53:47;102500.13;;;11.01;100.00
63281;BME280;49406;51.044;3.766;2023-05-02T05:56:22;102504.90;;;10.97;100.00
63281;BME280;49406;51.044;3.766;2023-05-02T05:58:56;102505.73;;;10.96;100.00
63281;BME280;49406;51.044;3.766;2023-05-02T06:01:30;102511.08;;;11.04;100.00
63281;BME280;49406;51.044;3.766;2023-05-02T06:04:06;102513.34;;;11.08;100.00
63281;BME280;49406;51.044;3.766;2023-05-02T06:06:41;102515.38;;;11.11;100.00
63281;BME280;49406;51.044;3.766;2023-05-02T06:09:15;102519.25;;;11.07;100.00
63281;BME280;49406;51.044;3.766;2023-05-02T06:11:50;102519.33;;;11.05;100.00
63281;BME280;49406;51.044;3.766;2023-05-02T06:14:24;102520.02;;;11.15;100.00
63281;BME280;49406;51.044;3.766;2023-05-02T06:17:00;102528.29;;;11.22;100.00
63281;BME280;49406;51.044;3.766;2023-05-02T06:19:35;102524.30;;;11.28;100.00
63281;BME280;49406;51.044;3.766;2023-05-02T06:22:12;102520.27;;;11.34;100.00
63281;BME280;49406;51.044;3.766;2023-05-02T06:24:46;102522.43;;;11.41;100.00
63281;BME280;49406;51.044;3.766;2023-05-02T06:27:20;102528.34;;;11.56;100.00
63281;BME280;49406;51.044;3.766;2023-05-02T06:29:55;102533.04;;;11.67;100.00
63281;BME280;49406;51.044;3.766;2023-05-02T06:32:31;102537.27;;;11.67;100.00
63281;BME280;49406;51.044;3.766;2023-05-02T06:35:07;102541.30;;;11.67;100.00
63281;BME280;49406;51.044;3.766;2023-05-02T06:37:41;102541.84;;;11.68;100.00
63281;BME280;49406;51.044;3.766;2023-05-02T06:40:16;102551.23;;;11.71;100.00
63281;BME280;49406;51.044;3.766;2023-05-02T06:42:51;102557.44;;;11.79;100.00
63281;BME280;49406;51.044;3.766;2023-05-02T06:45:25;102558.73;;;11.87;100.00
63281;BME280;49406;51.044;3.766;2023-05-02T06:47:58;102563.42;;;11.92;100.00
63281;BME280;49406;51.044;3.766;2023-05-02T06:50:33;102561.10;;;11.95;100.00
63281;BME280;49406;51.044;3.766;2023-05-02T06:53:07;102561.45;;;12.07;100.00
63281;BME280;49406;51.044;3.766;2023-05-02T06:55:42;102558.31;;;12.20;100.00
63281;BME280;49406;51.044;3.766;2023-05-02T06:58:17;102558.95;;;12.29;100.00
63281;BME280;49406;51.044;3.766;2023-05-02T07:00:51;102558.88;;;12.33;100.00
63281;BME280;49406;51.044;3.766;2023-05-02T07:03:26;102558.17;;;12.33;100.00
63281;BME280;49406;51.044;3.766;2023-05-02T07:06:00;102561.02;;;12.47;100.00
63281;BME280;49406;51.044;3.766;2023-05-02T07:08:34;102566.36;;;12.83;99.96
63281;BME280;49406;51.044;3.766;2023-05-02T07:11:09;102581.49;;;13.31;99.81
63281;BME280;49406;51.044;3.766;2023-05-02T07:13:43;102585.75;;;13.68;97.56
63281;BME280;49406;51.044;3.766;2023-05-02T07:16:18;102591.83;;;14.04;96.59
63281;BME280;49406;51.044;3.766;2023-05-02T07:18:53;102598.27;;;14.26;94.07
63281;BME280;49406;51.044;3.766;2023-05-02T07:21:27;102606.46;;;14.30;90.81
63281;BME280;49406;51.044;3.766;2023-05-02T07:24:01;102608.83;;;14.27;92.12
63281;BME280;49406;51.044;3.766;2023-05-02T07:26:36;102603.37;;;14.18;92.06
63281;BME280;49406;51.044;3.766;2023-05-02T07:29:10;102604.17;;;13.98;88.81
63281;BME280;49406;51.044;3.766;2023-05-02T07:31:45;102605.48;;;13.70;88.64
63281;BME280;49406;51.044;3.766;2023-05-02T07:34:19;102611.55;;;13.53;89.77
63281;BME280;49406;51.044;3.766;2023-05-02T07:36:53;102612.83;;;13.41;90.63
63281;BME280;49406;51.044;3.766;2023-05-02T07:39:28;102615.33;;;13.34;90.11
63281;BME280;49406;51.044;3.766;2023-05-02T07:42:03;102618.23;;;13.32;89.19
63281;BME280;49406;51.044;3.766;2023-05-02T07:44:38;102620.86;;;13.31;89.73
63281;BME280;49406;51.044;3.766;2023-05-02T07:47:13;102620.19;;;13.25;88.97
63281;BME280;49406;51.044;3.766;2023-05-02T07:49:51;102624.95;;;13.20;88.86
63281;BME280;49406;51.044;3.766;2023-05-02T07:52:26;102628.52;;;13.22;89.27
63281;BME280;49406;51.044;3.766;2023-05-02T07:55:00;102628.71;;;13.36;89.54
63281;BME280;49406;51.044;3.766;2023-05-02T07:57:33;102625.10;;;13.46;88.29
63281;BME280;49406;51.044;3.766;2023-05-02T08:00:09;102629.41;;;13.64;88.07
63281;BME280;49406;51.044;3.766;2023-05-02T08:02:44;102624.29;;;13.86;86.34
63281;BME280;49406;51.044;3.766;2023-05-02T08:05:19;102626.52;;;13.92;84.29
63281;BME280;49406;51.044;3.766;2023-05-02T08:07:53;102632.88;;;13.99;83.78
63281;BME280;49406;51.044;3.766;2023-05-02T08:10:28;102635.14;;;14.14;84.04
63281;BME280;49406;51.044;3.766;2023-05-02T08:13:02;102634.27;;;14.40;83.03
63281;BME280;49406;51.044;3.766;2023-05-02T08:15:37;102636.02;;;14.63;82.57
63281;BME280;49406;51.044;3.766;2023-05-02T08:18:11;102639.84;;;14.69;80.71
63281;BME280;49406;51.044;3.766;2023-05-02T08:20:46;102640.20;;;14.61;80.34
63281;BME280;49406;51.044;3.766;2023-05-02T08:23:22;102638.06;;;14.68;81.05
63281;BME280;49406;51.044;3.766;2023-05-02T08:25:57;102643.05;;;14.81;79.90
63281;BME280;49406;51.044;3.766;2023-05-02T08:28:31;102645.88;;;15.08;78.98
63281;BME280;49406;51.044;3.766;2023-05-02T08:31:06;102643.34;;;15.35;76.57
63281;BME280;49406;51.044;3.766;2023-05-02T08:33:40;102656.88;;;15.32;76.84
63281;BME280;49406;51.044;3.766;2023-05-02T08:36:16;102652.48;;;15.54;75.98
63281;BME280;49406;51.044;3.766;2023-05-02T08:38:51;102654.80;;;15.56;75.51
63281;BME280;49406;51.044;3.766;2023-05-02T08:41:26;102649.41;;;15.40;73.65
63281;BME280;49406;51.044;3.766;2023-05-02T08:44:02;102652.02;;;15.56;75.14
63281;BME280;49406;51.044;3.766;2023-05-02T08:46:41;102657.64;;;15.77;73.80
63281;BME280;49406;51.044;3.766;2023-05-02T08:49:17;102657.91;;;15.83;71.79
63281;BME280;49406;51.044;3.766;2023-05-02T08:51:52;102657.05;;;16.08;71.52
63281;BME280;49406;51.044;3.766;2023-05-02T08:54:28;102660.17;;;16.29;69.89
63281;BME280;49406;51.044;3.766;2023-05-02T08:57:03;102657.25;;;16.23;68.06
63281;BME280;49406;51.044;3.766;2023-05-02T08:59:39;102658.39;;;16.28;67.66
63281;BME280;49406;51.044;3.766;2023-05-02T09:02:20;102663.80;;;16.64;66.47
63281;BME280;49406;51.044;3.766;2023-05-02T09:05:02;102668.94;;;17.11;64.25
63281;BME280;49406;51.044;3.766;2023-05-02T09:07:47;102668.80;;;17.53;63.12
63281;BME280;49406;51.044;3.766;2023-05-02T09:10:21;102668.02;;;17.84;63.90
63281;BME280;49406;51.044;3.766;2023-05-02T09:13:28;102673.13;;;18.40;61.76
63281;BME280;49406;51.044;3.766;2023-05-02T09:16:04;102669.83;;;18.16;56.76
63281;BME280;49406;51.044;3.766;2023-05-02T09:18:40;102683.81;;;17.89;59.46
63281;BME280;49406;51.044;3.766;2023-05-02T09:21:16;102685.40;;;18.15;59.36
63281;BME280;49406;51.044;3.766;2023-05-02T09:23:51;102688.22;;;18.14;57.89
63281;BME280;49406;51.044;3.766;2023-05-02T09:26:27;102692.57;;;18.02;58.58
63281;BME280;49406;51.044;3.766;2023-05-02T09:29:02;102694.10;;;17.93;58.80
63281;BME280;49406;51.044;3.766;2023-05-02T09:31:37;102700.19;;;17.60;59.81
63281;BME280;49406;51.044;3.766;2023-05-02T09:34:15;102703.91;;;17.25;59.83
63281;BME280;49406;51.044;3.766;2023-05-02T09:36:51;102700.90;;;17.09;61.27
63281;BME280;49406;51.044;3.766;2023-05-02T09:39:27;102701.39;;;17.03;62.26
63281;BME280;49406;51.044;3.766;2023-05-02T09:42:02;102702.65;;;17.06;60.65
63281;BME280;49406;51.044;3.766;2023-05-02T09:44:39;102702.83;;;17.07;59.63
63281;BME280;49406;51.044;3.766;2023-05-02T09:47:24;102703.55;;;16.78;59.41
63281;BME280;49406;51.044;3.766;2023-05-02T09:49:59;102707.01;;;16.60;60.61
63281;BME280;49406;51.044;3.766;2023-05-02T09:52:34;102710.02;;;16.61;60.35
63281;BME280;49406;51.044;3.766;2023-05-02T09:55:20;102708.91;;;16.57;59.39
63281;BME280;49406;51.044;3.766;2023-05-02T09:57:53;102711.57;;;16.32;60.60
63281;BME280;49406;51.044;3.766;2023-05-02T10:00:40;102709.34;;;16.24;61.03
63281;BME280;49406;51.044;3.766;2023-05-02T10:03:17;102700.64;;;16.32;61.58
63281;BME280;49406;51.044;3.766;2023-05-02T10:05:52;102708.41;;;16.45;60.43
63281;BME280;49406;51.044;3.766;2023-05-02T10:08:28;102711.16;;;16.53;57.67
63281;BME280;49406;51.044;3.766;2023-05-02T10:11:06;102711.45;;;16.88;58.56
63281;BME280;49406;51.044;3.766;2023-05-02T10:13:41;102714.09;;;17.35;55.93
63281;BME280;49406;51.044;3.766;2023-05-02T10:16:24;102715.90;;;17.39;55.88
63281;BME280;49406;51.044;3.766;2023-05-02T10:19:05;102717.05;;;17.49;54.63
63281;BME280;49406;51.044;3.766;2023-05-02T10:21:42;102712.49;;;17.34;53.46
63281;BME280;49406;51.044;3.766;2023-05-02T10:24:17;102712.20;;;17.24;54.26
63281;BME280;49406;51.044;3.766;2023-05-02T10:26:52;102712.68;;;17.36;55.08
63281;BME280;49406;51.044;3.766;2023-05-02T10:29:29;102708.10;;;17.56;54.45
63281;BME280;49406;51.044;3.766;2023-05-02T10:32:05;102710.31;;;17.86;54.26
63281;BME280;49406;51.044;3.766;2023-05-02T10:34:40;102717.95;;;18.13;52.97
63281;BME280;49406;51.044;3.766;2023-05-02T10:37:15;102715.91;;;18.27;51.35
63281;BME280;49406;51.044;3.766;2023-05-02T10:39:50;102722.54;;;18.39;50.65
63281;BME280;49406;51.044;3.766;2023-05-02T10:42:26;102717.98;;;18.51;51.48
63281;BME280;49406;51.044;3.766;2023-05-02T10:45:01;102725.20;;;18.70;51.21
63281;BME280;49406;51.044;3.766;2023-05-02T10:47:37;102727.45;;;18.63;49.00
63281;BME280;49406;51.044;3.766;2023-05-02T10:50:11;102725.40;;;18.75;49.87
63281;BME280;49406;51.044;3.766;2023-05-02T10:52:46;102723.77;;;19.11;48.91
63281;BME280;49406;51.044;3.766;2023-05-02T10:55:21;102716.86;;;19.19;47.52
63281;BME280;49406;51.044;3.766;2023-05-02T10:58:22;102713.95;;;18.95;47.08
63281;BME280;49406;51.044;3.766;2023-05-02T11:01:35;102718.36;;;18.83;48.16
63281;BME280;49406;51.044;3.766;2023-05-02T11:04:13;102715.73;;;18.95;47.93
63281;BME280;49406;51.044;3.766;2023-05-02T11:07:19;102717.41;;;19.24;47.33
63281;BME280;49406;51.044;3.766;2023-05-02T11:09:53;102722.94;;;19.45;46.68
63281;BME280;49406;51.044;3.766;2023-05-02T11:12:49;102724.91;;;19.47;45.71
63281;BME280;49406;51.044;3.766;2023-05-02T11:15:56;102722.74;;;19.35;46.45
63281;BME280;49406;51.044;3.766;2023-05-02T11:18:58;102722.33;;;19.07;45.69
63281;BME280;49406;51.044;3.766;2023-05-02T11:21:33;102722.70;;;19.13;45.68
63281;BME280;49406;51.044;3.766;2023-05-02T11:24:37;102722.52;;;19.11;45.57
63281;BME280;49406;51.044;3.766;2023-05-02T11:27:38;102723.52;;;18.90;44.96
63281;BME280;49406;51.044;3.766;2023-05-02T11:30:13;102721.52;;;18.79;46.02
63281;BME280;49406;51.044;3.766;2023-05-02T11:33:14;102732.63;;;19.11;45.75
63281;BME280;49406;51.044;3.766;2023-05-02T11:35:52;102735.63;;;19.11;44.24
63281;BME280;49406;51.044;3.766;2023-05-02T11:38:36;102734.08;;;19.22;44.53
63281;BME280;49406;51.044;3.766;2023-05-02T11:41:11;102737.44;;;19.27;44.20
63281;BME280;49406;51.044;3.766;2023-05-02T11:43:45;102735.63;;;19.04;44.15
63281;BME280;49406;51.044;3.766;2023-05-02T11:46:18;102732.41;;;19.04;44.97
63281;BME280;49406;51.044;3.766;2023-05-02T11:48:53;102738.32;;;19.23;44.52
63281;BME280;49406;51.044;3.766;2023-05-02T11:51:27;102739.39;;;19.23;42.87
63281;BME280;49406;51.044;3.766;2023-05-02T11:54:02;102749.67;;;19.22;43.77
63281;BME280;49406;51.044;3.766;2023-05-02T11:56:36;102748.61;;;19.21;42.41
63281;BME280;49406;51.044;3.766;2023-05-02T11:59:11;102751.63;;;19.16;42.31
63281;BME280;49406;51.044;3.766;2023-05-02T12:01:51;102749.50;;;19.16;42.70
63281;BME280;49406;51.044;3.766;2023-05-02T12:04:27;102750.38;;;19.18;42.92
63281;BME280;49406;51.044;3.766;2023-05-02T12:07:02;102756.71;;;19.04;43.38
63281;BME280;49406;51.044;3.766;2023-05-02T12:09:36;102754.63;;;19.13;44.04
63281;BME280;49406;51.044;3.766;2023-05-02T12:12:23;102754.60;;;19.08;43.49
63281;BME280;49406;51.044;3.766;2023-05-02T12:14:57;102753.90;;;19.13;44.42
63281;BME280;49406;51.044;3.766;2023-05-02T12:17:32;102757.13;;;19.26;44.03
63281;BME280;49406;51.044;3.766;2023-05-02T12:20:09;102760.17;;;19.33;43.44
63281;BME280;49406;51.044;3.766;2023-05-02T12:22:44;102764.23;;;19.27;43.39
63281;BME280;49406;51.044;3.766;2023-05-02T12:25:20;102765.84;;;19.31;43.31
63281;BME280;49406;51.044;3.766;2023-05-02T12:28:01;102762.63;;;19.27;43.63
63281;BME280;49406;51.044;3.766;2023-05-02T12:30:38;102766.00;;;19.27;43.43
63281;BME280;49406;51.044;3.766;2023-05-02T12:33:13;102765.56;;;19.00;44.05
63281;BME280;49406;51.044;3.766;2023-05-02T12:35:48;102764.73;;;18.73;44.49
63281;BME280;49406;51.044;3.766;2023-05-02T12:38:24;102772.36;;;18.76;45.00
63281;BME280;49406;51.044;3.766;2023-05-02T12:40:58;102775.44;;;18.88;44.69
63281;BME280;49406;51.044;3.766;2023-05-02T12:43:44;102773.13;;;18.88;43.24
63281;BME280;49406;51.044;3.766;2023-05-02T12:46:19;102771.80;;;18.70;44.81
63281;BME280;49406;51.044;3.766;2023-05-02T12:49:03;102768.63;;;18.73;45.04
63281;BME280;49406;51.044;3.766;2023-05-02T12:51:39;102776.53;;;18.60;44.12
63281;BME280;49406;51.044;3.766;2023-05-02T12:54:21;102772.35;;;18.47;44.63
63281;BME280;49406;51.044;3.766;2023-05-02T12:56:56;102783.20;;;18.28;45.11
63281;BME280;49406;51.044;3.766;2023-05-02T12:59:31;102782.08;;;18.18;45.65
63281;BME280;49406;51.044;3.766;2023-05-02T13:02:05;102777.73;;;18.05;45.33
63281;BME280;49406;51.044;3.766;2023-05-02T13:04:41;102785.39;;;17.92;45.81
63281;BME280;49406;51.044;3.766;2023-05-02T13:07:15;102788.69;;;18.04;45.78
63281;BME280;49406;51.044;3.766;2023-05-02T13:09:48;102793.54;;;18.12;44.36
63281;BME280;49406;51.044;3.766;2023-05-02T13:12:22;102792.30;;;18.14;43.95
63281;BME280;49406;51.044;3.766;2023-05-02T13:14:57;102786.89;;;18.23;43.06
63281;BME280;49406;51.044;3.766;2023-05-02T13:17:31;102786.43;;;18.11;42.66
63281;BME280;49406;51.044;3.766;2023-05-02T13:20:07;102794.54;;;18.04;44.10
63281;BME280;49406;51.044;3.766;2023-05-02T13:22:42;102789.02;;;18.02;44.41
63281;BME280;49406;51.044;3.766;2023-05-02T13:25:16;102783.17;;;18.24;43.39
63281;BME280;49406;51.044;3.766;2023-05-02T13:27:51;102790.05;;;18.18;43.33
63281;BME280;49406;51.044;3.766;2023-05-02T13:30:25;102786.40;;;18.07;42.63
63281;BME280;49406;51.044;3.766;2023-05-02T13:33:00;102785.53;;;18.09;42.46
63281;BME280;49406;51.044;3.766;2023-05-02T13:35:34;102787.07;;;18.23;42.77